createdAt,value
2019-03-17T00:01:27.635Z,62.90
2019-03-17T00:03:54.436Z,63.80
2019-03-17T00:06:21.167Z,63.00
2019-03-17T00:08:47.904Z,63.00
2019-03-17T00:11:14.784Z,63.00
2019-03-17T00:13:41.520Z,63.00
2019-03-17T00:16:08.275Z,62.70
2019-03-17T00:18:35.038Z,62.80
2019-03-17T00:21:01.755Z,62.80
2019-03-17T00:23:29.900Z,63.10
2019-03-17T00:25:56.651Z,63.10
2019-03-17T00:28:23.403Z,63.80
2019-03-17T00:30:50.275Z,64.90
2019-03-17T00:33:17.025Z,63.70
2019-03-17T00:35:43.783Z,63.70
2019-03-17T00:38:10.660Z,63.60
2019-03-17T00:40:37.429Z,63.70
2019-03-17T00:43:04.166Z,64.00
2019-03-17T00:45:30.950Z,63.70
2019-03-17T00:47:57.671Z,63.90
2019-03-17T00:50:24.696Z,63.30
2019-03-17T00:52:51.437Z,63.40
2019-03-17T00:55:18.179Z,63.60
2019-03-17T00:57:45.046Z,63.10
2019-03-17T01:00:14.287Z,63.20
2019-03-17T01:02:41.094Z,63.50
2019-03-17T01:05:07.965Z,63.40
2019-03-17T01:07:34.683Z,63.50
2019-03-17T01:10:01.596Z,63.50
2019-03-17T01:12:28.340Z,63.30
2019-03-17T01:14:55.063Z,63.40
2019-03-17T01:17:21.958Z,62.80
2019-03-17T01:19:48.689Z,63.20
2019-03-17T01:22:15.439Z,63.20
2019-03-17T01:24:42.319Z,63.40
2019-03-17T01:27:09.063Z,63.80
2019-03-17T01:29:35.793Z,63.40
2019-03-17T01:32:02.573Z,63.50
2019-03-17T01:34:29.300Z,63.60
2019-03-17T01:36:56.123Z,63.20
2019-03-17T01:39:22.861Z,62.60
2019-03-17T01:41:49.601Z,62.70
2019-03-17T01:44:16.372Z,62.80
2019-03-17T01:46:43.112Z,62.30
2019-03-17T01:49:10.166Z,62.90
2019-03-17T01:51:36.911Z,63.00
2019-03-17T01:54:03.662Z,62.90
2019-03-17T01:56:30.518Z,63.70
2019-03-17T01:58:57.289Z,63.10
2019-03-17T02:01:24.010Z,63.40
2019-03-17T02:03:50.880Z,63.40
2019-03-17T02:06:17.623Z,63.60
2019-03-17T02:08:44.349Z,64.00
2019-03-17T02:11:11.113Z,63.70
2019-03-17T02:13:37.842Z,63.60
2019-03-17T02:16:04.735Z,63.50
2019-03-17T02:18:31.479Z,63.90
2019-03-17T02:20:58.185Z,64.20
2019-03-17T02:23:25.080Z,64.30
2019-03-17T02:25:51.820Z,63.90
2019-03-17T02:28:18.546Z,63.80
2019-03-17T02:30:45.461Z,63.20
2019-03-17T02:33:12.153Z,63.40
2019-03-17T02:35:40.171Z,63.40
2019-03-17T02:38:07.179Z,63.40
2019-03-17T02:40:33.908Z,63.40
2019-03-17T02:43:00.780Z,64.00
2019-03-17T02:45:27.514Z,63.90
2019-03-17T02:47:54.262Z,63.40
2019-03-17T02:50:21.139Z,63.50
2019-03-17T02:52:47.862Z,63.80
2019-03-17T02:55:14.616Z,63.10
2019-03-17T02:57:41.478Z,63.50
2019-03-17T03:00:09.688Z,63.80
2019-03-17T03:02:36.421Z,63.90
2019-03-17T03:05:05.652Z,64.00
2019-03-17T03:07:32.375Z,64.20
2019-03-17T03:09:59.117Z,64.40
2019-03-17T03:12:25.985Z,64.20
2019-03-17T03:14:52.717Z,64.10
2019-03-17T03:17:19.459Z,64.20
2019-03-17T03:19:46.228Z,64.40
2019-03-17T03:22:12.960Z,64.40
2019-03-17T03:24:39.849Z,64.60
2019-03-17T03:27:06.573Z,64.70
2019-03-17T03:29:33.302Z,65.10
2019-03-17T03:32:00.089Z,65.20
2019-03-17T03:34:26.889Z,65.20
2019-03-17T03:36:53.830Z,65.00
2019-03-17T03:39:20.559Z,65.30
2019-03-17T03:41:47.302Z,65.10
2019-03-17T03:44:14.173Z,64.80
2019-03-17T03:46:40.913Z,65.00
2019-03-17T03:49:07.644Z,65.10
2019-03-17T03:51:34.417Z,65.00
2019-03-17T03:54:01.146Z,65.00
2019-03-17T03:56:27.965Z,65.40
2019-03-17T03:58:54.793Z,65.30
2019-03-17T04:01:21.541Z,65.40
2019-03-17T04:03:48.495Z,65.60
2019-03-17T04:06:26.186Z,65.70
2019-03-17T04:08:43.769Z,65.60
2019-03-17T04:11:10.536Z,65.60
2019-03-17T04:13:37.283Z,65.80
2019-03-17T04:16:04.149Z,65.60
2019-03-17T04:18:30.925Z,65.80
2019-03-17T04:20:57.678Z,65.80
2019-03-17T04:23:24.545Z,65.50
2019-03-17T04:25:51.679Z,64.90
2019-03-17T04:28:18.411Z,65.50
2019-03-17T04:30:45.298Z,66.20
2019-03-17T04:33:12.037Z,65.80
2019-03-17T04:35:38.773Z,65.60
2019-03-17T04:38:05.636Z,65.90
2019-03-17T04:40:32.371Z,66.20
2019-03-17T04:42:59.110Z,66.30
2019-03-17T04:45:26.112Z,65.90
2019-03-17T04:47:52.856Z,66.10
2019-03-17T04:50:19.599Z,65.80
2019-03-17T04:52:46.369Z,66.20
2019-03-17T04:55:13.113Z,65.90
2019-03-17T04:57:39.981Z,66.00
2019-03-17T05:00:10.617Z,66.00
2019-03-17T05:02:37.371Z,66.20
2019-03-17T05:05:06.216Z,66.40
2019-03-17T05:07:34.922Z,66.50
2019-03-17T05:10:03.589Z,66.70
2019-03-17T05:12:30.363Z,67.10
2019-03-17T05:14:58.707Z,66.90
2019-03-17T05:17:25.604Z,67.00
2019-03-17T05:19:52.410Z,66.70
2019-03-17T05:22:19.150Z,67.00
2019-03-17T05:24:45.934Z,67.10
2019-03-17T05:27:12.682Z,66.90
2019-03-17T05:29:39.607Z,67.20
2019-03-17T05:32:06.313Z,67.20
2019-03-17T05:34:33.061Z,66.70
2019-03-17T05:37:06.188Z,66.80
2019-03-17T05:39:28.468Z,67.20
2019-03-17T05:41:55.206Z,66.60
2019-03-17T05:44:21.988Z,67.20
2019-03-17T05:46:48.740Z,67.50
2019-03-17T05:49:15.600Z,67.50
2019-03-17T05:51:42.390Z,67.60
2019-03-17T05:54:11.607Z,67.50
2019-03-17T05:56:38.465Z,68.60
2019-03-17T05:59:07.950Z,67.60
2019-03-17T06:01:34.704Z,67.20
2019-03-17T06:04:01.471Z,66.80
2019-03-17T06:06:28.259Z,67.30
2019-03-17T06:08:55.143Z,67.50
2019-03-17T06:11:21.870Z,67.20
2019-03-17T06:13:51.136Z,67.40
2019-03-17T06:16:17.217Z,68.30
2019-03-17T06:18:43.934Z,67.90
2019-03-17T06:21:10.675Z,67.80
2019-03-17T06:23:37.498Z,68.40
2019-03-17T06:26:04.238Z,68.30
2019-03-17T06:28:30.965Z,68.00
2019-03-17T06:30:57.839Z,68.30
2019-03-17T06:33:24.589Z,68.60
2019-03-17T06:35:51.337Z,68.50
2019-03-17T06:38:18.197Z,68.60
2019-03-17T06:40:44.931Z,68.50
2019-03-17T06:43:11.660Z,68.60
2019-03-17T06:45:38.556Z,68.20
2019-03-17T06:48:05.293Z,68.30
2019-03-17T06:50:32.133Z,68.10
2019-03-17T06:52:58.973Z,68.00
2019-03-17T06:55:25.727Z,69.80
2019-03-17T06:57:52.470Z,71.00
2019-03-17T07:00:19.366Z,70.70
2019-03-17T07:02:46.080Z,71.50
2019-03-17T07:05:12.936Z,72.80
2019-03-17T07:07:44.190Z,72.50
2019-03-17T07:10:09.579Z,72.10
2019-03-17T07:12:36.407Z,71.60
2019-03-17T07:15:07.085Z,71.60
2019-03-17T07:17:33.831Z,71.60
2019-03-17T07:20:00.945Z,72.10
2019-03-17T07:22:27.678Z,72.20
2019-03-17T07:24:54.434Z,71.20
2019-03-17T07:27:21.332Z,71.30
2019-03-17T07:29:49.493Z,71.40
2019-03-17T07:32:16.432Z,70.70
2019-03-17T07:34:43.248Z,70.70
2019-03-17T07:37:09.974Z,70.40
2019-03-17T07:39:36.878Z,70.20
2019-03-17T07:42:03.614Z,69.80
2019-03-17T07:44:30.377Z,69.90
2019-03-17T07:46:57.181Z,69.90
2019-03-17T07:49:23.931Z,69.60
2019-03-17T07:51:50.684Z,69.50
2019-03-17T07:54:17.555Z,70.30
2019-03-17T07:56:44.311Z,69.70
2019-03-17T07:59:11.023Z,69.30
2019-03-17T08:01:38.038Z,69.40
2019-03-17T08:04:04.832Z,69.60
2019-03-17T08:06:31.623Z,68.90
2019-03-17T08:08:58.528Z,68.20
2019-03-17T08:11:25.279Z,68.10
2019-03-17T08:13:52.022Z,68.00
2019-03-17T08:16:18.792Z,67.90
2019-03-17T08:18:45.513Z,67.60
2019-03-17T08:21:12.412Z,67.50
2019-03-17T08:23:39.195Z,67.50
2019-03-17T08:26:05.918Z,67.40
2019-03-17T08:28:32.714Z,67.50
2019-03-17T08:30:59.485Z,67.10
2019-03-17T08:33:26.222Z,67.40
2019-03-17T08:35:53.106Z,67.10
2019-03-17T08:38:22.109Z,67.10
2019-03-17T08:40:48.708Z,67.00
2019-03-17T08:43:15.605Z,67.00
2019-03-17T08:45:42.354Z,66.70
2019-03-17T08:48:09.089Z,66.40
2019-03-17T08:50:36.701Z,66.80
2019-03-17T08:53:03.479Z,66.40
2019-03-17T08:55:30.238Z,66.30
2019-03-17T08:57:57.018Z,66.20
2019-03-17T09:00:23.769Z,66.00
2019-03-17T09:02:50.606Z,66.10
2019-03-17T09:05:17.363Z,65.40
2019-03-17T09:07:45.275Z,65.60
2019-03-17T09:10:13.357Z,65.20
2019-03-17T09:12:40.097Z,65.40
2019-03-17T09:15:07.173Z,64.70
2019-03-17T09:17:34.046Z,64.60
2019-03-17T09:20:00.821Z,64.30
2019-03-17T09:22:27.703Z,65.60
2019-03-17T09:24:54.508Z,64.30
2019-03-17T09:27:21.272Z,64.20
2019-03-17T09:29:48.180Z,63.30
2019-03-17T09:32:14.906Z,63.10
2019-03-17T09:34:41.667Z,63.10
2019-03-17T09:37:08.743Z,62.60
2019-03-17T09:39:35.508Z,62.80
2019-03-17T09:42:02.260Z,61.60
2019-03-17T09:44:29.095Z,62.20
2019-03-17T09:46:55.834Z,61.80
2019-03-17T09:49:22.588Z,61.80
2019-03-17T09:51:49.371Z,61.30
2019-03-17T09:54:17.036Z,61.20
2019-03-17T09:56:43.924Z,61.10
2019-03-17T09:59:12.832Z,60.90
2019-03-17T10:01:39.568Z,60.10
2019-03-17T10:04:06.452Z,60.30
2019-03-17T10:06:33.283Z,60.20
2019-03-17T10:09:00.607Z,62.20
2019-03-17T10:11:27.493Z,60.00
2019-03-17T10:13:54.256Z,59.40
2019-03-17T10:16:21.243Z,58.80
2019-03-17T10:18:47.992Z,58.20
2019-03-17T10:21:14.792Z,58.30
2019-03-17T10:23:41.584Z,58.30
2019-03-17T10:26:08.334Z,57.90
2019-03-17T10:28:35.347Z,57.40
2019-03-17T10:31:02.348Z,57.40
2019-03-17T10:33:29.090Z,57.30
2019-03-17T10:35:55.867Z,57.30
2019-03-17T10:38:22.673Z,56.70
2019-03-17T10:40:49.408Z,56.70
2019-03-17T10:43:16.304Z,56.90
2019-03-17T10:45:43.066Z,56.50
2019-03-17T10:48:09.812Z,56.70
2019-03-17T10:50:48.735Z,56.60
2019-03-17T10:53:05.178Z,56.80
2019-03-17T10:55:31.898Z,56.10
2019-03-17T10:57:58.831Z,55.50
2019-03-17T11:00:25.570Z,54.80
2019-03-17T11:02:52.328Z,53.80
2019-03-17T11:05:19.148Z,52.40
2019-03-17T11:07:46.291Z,50.50
2019-03-17T11:10:14.098Z,49.20
2019-03-17T11:12:40.858Z,47.90
2019-03-17T11:15:18.713Z,47.30
2019-03-17T11:17:48.379Z,47.20
2019-03-17T11:20:15.217Z,46.80
2019-03-17T11:22:42.107Z,45.90
2019-03-17T11:25:11.705Z,45.20
2019-03-17T11:27:38.474Z,45.10
2019-03-17T11:30:10.360Z,44.70
2019-03-17T11:32:37.138Z,44.50
2019-03-17T11:35:04.894Z,44.10
2019-03-17T11:37:31.708Z,44.40
2019-03-17T11:39:58.514Z,43.70
2019-03-17T11:42:25.335Z,43.80
2019-03-17T11:44:52.053Z,43.20
2019-03-17T11:47:18.832Z,43.00
2019-03-17T11:49:46.254Z,42.60
2019-03-17T11:52:13.153Z,42.50
2019-03-17T11:54:40.029Z,42.10
2019-03-17T11:57:15.847Z,42.20
2019-03-17T11:59:42.604Z,41.90
2019-03-17T12:02:09.364Z,41.70
2019-03-17T12:04:36.246Z,40.90
2019-03-17T12:07:02.989Z,40.40
2019-03-17T12:09:29.795Z,40.10
2019-03-17T12:11:56.662Z,39.60
2019-03-17T12:14:23.401Z,39.30
2019-03-17T12:16:50.125Z,39.40
2019-03-17T12:19:17.022Z,40.50
2019-03-17T12:21:43.745Z,39.80
2019-03-17T12:24:10.487Z,39.90
2019-03-17T12:26:37.371Z,39.40
2019-03-17T12:29:04.150Z,39.60
2019-03-17T12:31:30.861Z,39.40
2019-03-17T12:33:57.745Z,39.20
2019-03-17T12:36:24.499Z,39.50
2019-03-17T12:38:51.554Z,39.20
2019-03-17T12:41:18.348Z,39.10
2019-03-17T12:43:45.115Z,39.40
2019-03-17T12:46:11.991Z,39.50
2019-03-17T12:48:38.732Z,39.20
2019-03-17T12:51:05.458Z,39.40
2019-03-17T12:53:32.368Z,39.10
2019-03-17T12:55:59.094Z,39.50
2019-03-17T12:58:25.849Z,39.50
2019-03-17T13:00:52.619Z,40.10
2019-03-17T13:03:19.359Z,39.80
2019-03-17T13:05:46.230Z,39.80
2019-03-17T13:08:12.969Z,39.70
2019-03-17T13:10:39.764Z,39.70
2019-03-17T13:13:06.663Z,40.30
2019-03-17T13:15:33.415Z,40.50
2019-03-17T13:18:00.152Z,40.50
2019-03-17T13:20:29.583Z,40.30
2019-03-17T13:22:55.590Z,40.40
2019-03-17T13:25:22.335Z,40.30
2019-03-17T13:27:49.231Z,40.80
2019-03-17T13:30:17.187Z,40.50
2019-03-17T13:32:43.904Z,40.50
2019-03-17T13:35:10.794Z,40.80
2019-03-17T13:37:37.523Z,40.50
2019-03-17T13:40:28.426Z,40.70
2019-03-17T13:42:46.092Z,40.20
2019-03-17T13:45:13.045Z,39.90
2019-03-17T13:47:40.045Z,39.70
2019-03-17T13:50:20.065Z,39.40
2019-03-17T13:52:46.950Z,39.50
2019-03-17T13:55:13.679Z,39.20
2019-03-17T13:57:44.938Z,39.50
2019-03-17T14:00:14.101Z,39.60
2019-03-17T14:02:40.839Z,39.90
2019-03-17T14:05:07.683Z,39.40
2019-03-17T14:07:34.584Z,39.50
2019-03-17T14:10:13.259Z,39.30
2019-03-17T14:12:30.175Z,39.50
2019-03-17T14:14:56.914Z,39.40
2019-03-17T14:17:23.667Z,39.70
2019-03-17T14:19:50.562Z,39.70
2019-03-17T14:22:17.318Z,39.70
2019-03-17T14:24:44.580Z,39.90
2019-03-17T14:27:11.471Z,39.60
2019-03-17T14:29:38.213Z,39.60
2019-03-17T14:32:04.973Z,39.90
2019-03-17T14:34:31.797Z,39.80
2019-03-17T14:36:58.555Z,40.00
2019-03-17T14:39:25.447Z,40.70
2019-03-17T14:41:52.165Z,40.10
2019-03-17T14:44:18.906Z,40.20
2019-03-17T14:46:45.864Z,40.30
2019-03-17T14:49:12.634Z,40.90
2019-03-17T14:51:39.352Z,40.40
2019-03-17T14:54:06.159Z,40.90
2019-03-17T14:56:32.916Z,40.90
2019-03-17T14:58:59.656Z,40.90
2019-03-17T15:01:26.467Z,41.80
2019-03-17T15:03:53.203Z,42.80
2019-03-17T15:06:20.117Z,44.60
2019-03-17T15:08:48.713Z,45.60
2019-03-17T15:11:15.481Z,46.30
2019-03-17T15:13:42.374Z,47.00
2019-03-17T15:16:09.130Z,47.90
2019-03-17T15:18:35.893Z,48.00
2019-03-17T15:21:03.071Z,48.40
2019-03-17T15:23:29.755Z,48.80
2019-03-17T15:25:56.486Z,49.20
2019-03-17T15:28:23.470Z,49.50
2019-03-17T15:31:05.715Z,49.60
2019-03-17T15:33:18.930Z,49.80
2019-03-17T15:35:45.679Z,50.00
2019-03-17T15:38:12.400Z,50.50
2019-03-17T15:40:39.288Z,50.60
2019-03-17T15:43:06.043Z,51.00
2019-03-17T15:45:32.757Z,50.70
2019-03-17T15:47:59.648Z,50.70
2019-03-17T15:50:27.980Z,51.20
2019-03-17T15:52:54.749Z,51.40
2019-03-17T15:55:21.648Z,52.20
2019-03-17T15:57:48.680Z,51.80
2019-03-17T16:00:25.278Z,52.90
2019-03-17T16:02:51.128Z,53.10
2019-03-17T16:05:18.562Z,53.40
2019-03-17T16:07:45.959Z,53.50
2019-03-17T16:10:32.001Z,54.10
2019-03-17T16:12:58.764Z,53.60
2019-03-17T16:15:25.641Z,53.90
2019-03-17T16:17:52.407Z,54.50
2019-03-17T16:20:24.939Z,54.00
2019-03-17T16:22:51.943Z,54.10
2019-03-17T16:25:33.169Z,54.60
2019-03-17T16:28:00.047Z,54.70
2019-03-17T16:30:31.024Z,54.40
2019-03-17T16:32:57.819Z,54.90
2019-03-17T16:35:24.594Z,54.70
2019-03-17T16:37:51.345Z,54.80
2019-03-17T16:40:29.055Z,55.10
2019-03-17T16:42:55.786Z,55.50
2019-03-17T16:45:22.522Z,55.60
2019-03-17T16:47:49.600Z,55.70
2019-03-17T16:50:18.561Z,56.00
2019-03-17T16:52:45.304Z,55.40
2019-03-17T16:55:12.309Z,55.90
2019-03-17T16:57:39.046Z,56.10
2019-03-17T17:00:21.206Z,56.10
2019-03-17T17:02:48.456Z,56.20
2019-03-17T17:05:16.890Z,56.40
2019-03-17T17:07:43.892Z,56.70
2019-03-17T17:10:14.507Z,56.50
2019-03-17T17:12:41.257Z,56.60
2019-03-17T17:15:13.084Z,56.70
2019-03-17T17:17:39.826Z,56.70
2019-03-17T17:20:19.773Z,56.60
2019-03-17T17:22:46.541Z,56.90
2019-03-17T17:25:13.241Z,56.90
2019-03-17T17:27:40.131Z,56.80
2019-03-17T17:30:11.779Z,56.90
2019-03-17T17:32:38.532Z,57.00
2019-03-17T17:35:06.098Z,57.20
2019-03-17T17:37:33.076Z,57.10
2019-03-17T17:40:00.055Z,57.30
2019-03-17T17:42:26.991Z,57.20
2019-03-17T17:44:53.738Z,57.30
2019-03-17T17:47:20.469Z,57.50
2019-03-17T17:49:47.336Z,57.80
2019-03-17T17:52:14.069Z,58.00
2019-03-17T17:54:40.802Z,57.90
2019-03-17T17:57:07.668Z,58.00
2019-03-17T17:59:34.399Z,58.20
2019-03-17T18:02:01.307Z,58.30
2019-03-17T18:04:28.216Z,58.50
2019-03-17T18:06:54.954Z,58.60
2019-03-17T18:09:21.695Z,58.90
2019-03-17T18:11:48.578Z,59.00
2019-03-17T18:14:15.333Z,59.30
2019-03-17T18:16:42.073Z,59.50
2019-03-17T18:19:08.967Z,59.50
2019-03-17T18:21:35.725Z,59.70
2019-03-17T18:24:02.434Z,59.70
2019-03-17T18:26:29.385Z,59.90
2019-03-17T18:28:56.109Z,60.00
2019-03-17T18:31:23.119Z,60.00
2019-03-17T18:33:49.985Z,60.10
2019-03-17T18:36:16.742Z,60.30
2019-03-17T18:38:43.504Z,60.60
2019-03-17T18:41:10.383Z,60.50
2019-03-17T18:43:37.114Z,60.80
2019-03-17T18:46:04.144Z,61.10
2019-03-17T18:48:30.924Z,61.10
2019-03-17T18:50:57.781Z,61.40
2019-03-17T18:53:24.662Z,61.60
2019-03-17T18:55:51.395Z,61.50
2019-03-17T18:58:18.123Z,61.60
2019-03-17T19:00:44.896Z,61.80
2019-03-17T19:03:11.639Z,62.00
2019-03-17T19:05:38.495Z,62.20
2019-03-17T19:08:05.232Z,62.20
2019-03-17T19:10:31.984Z,62.30
2019-03-17T19:12:58.760Z,62.40
2019-03-17T19:15:25.542Z,62.60
2019-03-17T19:17:52.426Z,62.40
2019-03-17T19:20:20.435Z,62.60
2019-03-17T19:22:47.188Z,62.60
2019-03-17T19:25:19.818Z,62.60
2019-03-17T19:27:46.557Z,62.50
2019-03-17T19:30:18.911Z,62.80
2019-03-17T19:32:46.052Z,62.80
2019-03-17T19:35:13.184Z,62.70
2019-03-17T19:37:40.039Z,62.80
2019-03-17T19:40:16.971Z,62.70
2019-03-17T19:42:43.978Z,62.90
2019-03-17T19:45:11.015Z,63.00
2019-03-17T19:47:37.752Z,63.30
2019-03-17T19:50:17.037Z,63.40
2019-03-17T19:52:44.332Z,63.30
2019-03-17T19:55:11.373Z,63.40
2019-03-17T19:57:44.800Z,63.90
2019-03-17T20:00:16.495Z,63.80
2019-03-17T20:02:46.818Z,64.20
2019-03-17T20:05:12.085Z,64.50
2019-03-17T20:07:38.811Z,64.30
2019-03-17T20:10:21.690Z,64.70
2019-03-17T20:12:48.470Z,64.50
2019-03-17T20:15:15.217Z,64.90
2019-03-17T20:17:42.095Z,65.00
2019-03-17T20:20:13.544Z,65.50
2019-03-17T20:22:40.384Z,64.50
2019-03-17T20:25:07.254Z,65.00
2019-03-17T20:27:34.005Z,65.00
2019-03-17T20:30:00.730Z,65.10
2019-03-17T20:32:27.501Z,65.10
2019-03-17T20:34:54.255Z,65.00
2019-03-17T20:37:21.125Z,65.00
2019-03-17T20:39:47.842Z,65.20
2019-03-17T20:42:14.573Z,65.20
2019-03-17T20:44:41.453Z,65.00
2019-03-17T20:47:08.203Z,64.80
2019-03-17T20:49:34.945Z,65.20
2019-03-17T20:52:02.278Z,65.80
2019-03-17T20:54:28.998Z,65.70
2019-03-17T20:56:55.741Z,65.70
2019-03-17T20:59:22.630Z,66.00
2019-03-17T21:01:49.358Z,66.30
2019-03-17T21:04:16.107Z,66.50
2019-03-17T21:06:42.925Z,66.10
2019-03-17T21:09:09.665Z,66.10
2019-03-17T21:11:36.383Z,66.20
2019-03-17T21:14:03.372Z,66.50
2019-03-17T21:16:30.149Z,66.20
2019-03-17T21:18:56.905Z,66.20
2019-03-17T21:21:23.908Z,66.10
2019-03-17T21:23:50.647Z,66.20
2019-03-17T21:26:17.381Z,66.50
2019-03-17T21:28:44.272Z,66.60
2019-03-17T21:31:10.994Z,66.50
2019-03-17T21:33:40.194Z,66.40
2019-03-17T21:36:06.446Z,66.10
2019-03-17T21:38:33.190Z,66.10
2019-03-17T21:41:07.086Z,66.00
2019-03-17T21:43:28.536Z,66.00
2019-03-17T21:45:55.268Z,66.00
2019-03-17T21:48:22.002Z,66.00
2019-03-17T21:50:48.894Z,66.10
2019-03-17T21:53:15.626Z,66.30
2019-03-17T21:55:42.362Z,66.10
2019-03-17T21:58:09.177Z,66.30
2019-03-17T22:00:36.089Z,66.40
2019-03-17T22:03:03.179Z,66.30
2019-03-17T22:05:30.052Z,66.50
2019-03-17T22:07:56.763Z,66.70
2019-03-17T22:10:23.490Z,66.60
2019-03-17T22:12:50.379Z,66.60
2019-03-17T22:15:17.536Z,66.40
2019-03-17T22:17:44.320Z,66.40
2019-03-17T22:20:14.398Z,66.50
2019-03-17T22:22:41.130Z,66.60
2019-03-17T22:25:15.347Z,66.40
2019-03-17T22:27:42.064Z,66.60
2019-03-17T22:30:18.873Z,66.30
2019-03-17T22:32:45.617Z,66.50
2019-03-17T22:35:12.348Z,66.40
2019-03-17T22:37:39.217Z,66.60
2019-03-17T22:40:13.564Z,66.60
2019-03-17T22:42:40.298Z,66.70
2019-03-17T22:45:12.702Z,66.60
2019-03-17T22:47:39.419Z,66.60
2019-03-17T22:50:10.178Z,67.10
2019-03-17T22:52:37.052Z,67.60
2019-03-17T22:55:06.103Z,67.00
2019-03-17T22:57:32.845Z,66.70
2019-03-17T22:59:59.694Z,67.00
2019-03-17T23:02:26.423Z,67.70
2019-03-17T23:04:53.174Z,68.20
2019-03-17T23:07:20.249Z,68.40
2019-03-17T23:09:47.074Z,68.80
2019-03-17T23:12:13.969Z,69.20
2019-03-17T23:14:40.695Z,69.20
2019-03-17T23:17:07.449Z,70.00
2019-03-17T23:19:34.377Z,69.70
2019-03-17T23:22:01.107Z,69.80
2019-03-17T23:24:28.134Z,70.10
2019-03-17T23:26:55.134Z,70.00
2019-03-17T23:29:21.861Z,70.10
2019-03-17T23:31:48.586Z,70.00
2019-03-17T23:34:15.338Z,70.30
2019-03-17T23:36:42.069Z,70.00
2019-03-17T23:39:08.930Z,70.30
2019-03-17T23:41:35.700Z,70.10
2019-03-17T23:44:02.460Z,70.20
2019-03-17T23:46:29.329Z,70.10
2019-03-17T23:48:56.114Z,70.10
2019-03-17T23:51:22.781Z,71.30
2019-03-17T23:53:49.685Z,70.40
2019-03-17T23:56:16.415Z,70.30
2019-03-17T23:58:43.144Z,70.60
